createdAt,value
2016-05-29T00:00:52.716Z,0
2016-05-29T00:01:53.126Z,0
2016-05-29T00:02:52.893Z,0
2016-05-29T00:03:52.881Z,0
2016-05-29T00:04:52.899Z,0
2016-05-29T00:05:52.934Z,0
2016-05-29T00:06:52.732Z,0
2016-05-29T00:07:52.892Z,0
2016-05-29T00:08:52.754Z,0
2016-05-29T00:09:52.897Z,0
2016-05-29T00:10:52.900Z,0
2016-05-29T00:11:52.745Z,0
2016-05-29T00:12:52.906Z,0
2016-05-29T00:13:52.908Z,0
2016-05-29T00:14:52.910Z,0
2016-05-29T00:15:52.913Z,0
2016-05-29T00:16:52.775Z,0
2016-05-29T00:17:52.919Z,0
2016-05-29T00:18:52.765Z,0
2016-05-29T00:19:52.924Z,0
2016-05-29T00:20:53.380Z,0
2016-05-29T00:21:52.773Z,0
2016-05-29T00:22:52.916Z,0
2016-05-29T00:23:52.763Z,0
2016-05-29T00:24:52.766Z,0
2016-05-29T00:25:52.768Z,0
2016-05-29T00:26:52.786Z,0
2016-05-29T00:27:52.773Z,0
2016-05-29T00:28:52.948Z,0
2016-05-29T00:29:52.951Z,0
2016-05-29T00:30:52.938Z,0
2016-05-29T00:31:52.940Z,0
2016-05-29T00:32:52.802Z,0
2016-05-29T00:33:52.946Z,0
2016-05-29T00:34:52.980Z,0
2016-05-29T00:35:53.217Z,0
2016-05-29T00:36:52.954Z,0
2016-05-29T00:37:52.940Z,0
2016-05-29T00:38:53.209Z,0
2016-05-29T00:39:52.806Z,0
2016-05-29T00:40:52.965Z,0
2016-05-29T00:41:52.983Z,0
2016-05-29T00:42:52.798Z,0
2016-05-29T00:43:52.957Z,0
2016-05-29T00:44:52.975Z,0
2016-05-29T00:45:52.806Z,0
2016-05-29T00:46:52.809Z,0
2016-05-29T00:47:52.827Z,0
2016-05-29T00:48:52.830Z,0
2016-05-29T00:49:52.973Z,0
2016-05-29T00:50:53.022Z,0
2016-05-29T00:51:52.979Z,0
2016-05-29T00:52:52.981Z,0
2016-05-29T00:53:53.000Z,0
2016-05-29T00:54:52.971Z,0
2016-05-29T00:55:52.864Z,0
2016-05-29T00:56:52.851Z,0
2016-05-29T00:57:52.824Z,0
2016-05-29T00:58:52.997Z,0
2016-05-29T00:59:52.984Z,0
2016-05-29T01:00:52.832Z,0
2016-05-29T01:01:52.693Z,0
2016-05-29T01:02:52.993Z,0
2016-05-29T01:03:52.682Z,0
2016-05-29T01:04:52.842Z,0
2016-05-29T01:05:53.282Z,0
2016-05-29T01:06:53.004Z,0
2016-05-29T01:07:52.693Z,0
2016-05-29T01:08:53.009Z,0
2016-05-29T01:09:53.011Z,0
2016-05-29T01:10:53.014Z,0
2016-05-29T01:11:52.861Z,0
2016-05-29T01:12:52.863Z,0
2016-05-29T01:13:53.022Z,0
2016-05-29T01:14:52.869Z,0
2016-05-29T01:15:53.028Z,0
2016-05-29T01:16:52.874Z,0
2016-05-29T01:17:52.877Z,0
2016-05-29T01:18:53.036Z,0
2016-05-29T01:19:52.882Z,0
2016-05-29T01:20:53.760Z,0
2016-05-29T01:21:53.028Z,0
2016-05-29T01:22:53.030Z,0
2016-05-29T01:23:52.877Z,0
2016-05-29T01:24:52.880Z,0
2016-05-29T01:25:53.039Z,0
2016-05-29T01:26:53.041Z,0
2016-05-29T01:27:52.888Z,0
2016-05-29T01:28:53.047Z,0
2016-05-29T01:29:52.910Z,0
2016-05-29T01:30:53.318Z,0
2016-05-29T01:31:53.040Z,0
2016-05-29T01:32:53.058Z,0
2016-05-29T01:33:53.045Z,0
2016-05-29T01:34:53.063Z,0
2016-05-29T01:35:53.097Z,0
2016-05-29T01:36:53.053Z,0
2016-05-29T01:37:53.056Z,0
2016-05-29T01:38:53.074Z,0
2016-05-29T01:39:53.061Z,0
2016-05-29T01:40:52.923Z,0
2016-05-29T01:41:53.082Z,0
2016-05-29T01:42:53.084Z,0
2016-05-29T01:43:53.072Z,0
2016-05-29T01:44:53.075Z,0
2016-05-29T01:45:53.093Z,0
2016-05-29T01:46:53.064Z,0
2016-05-29T01:47:53.083Z,0
2016-05-29T01:48:52.928Z,0
2016-05-29T01:49:53.072Z,0
2016-05-29T01:50:53.122Z,0
2016-05-29T01:51:53.093Z,0
2016-05-29T01:52:52.955Z,0
2016-05-29T01:53:53.099Z,0
2016-05-29T01:54:53.085Z,0
2016-05-29T01:55:53.119Z,0
2016-05-29T01:56:53.091Z,0
2016-05-29T01:57:53.124Z,0
2016-05-29T01:58:52.941Z,0
2016-05-29T01:59:53.115Z,0
2016-05-29T02:00:53.102Z,0
2016-05-29T02:01:53.104Z,0
2016-05-29T02:02:53.123Z,0
2016-05-29T02:03:53.110Z,0
2016-05-29T02:04:53.113Z,0
2016-05-29T02:05:53.553Z,0
2016-05-29T02:06:53.117Z,0
2016-05-29T02:07:53.137Z,0
2016-05-29T02:08:53.124Z,0
2016-05-29T02:09:53.157Z,0
2016-05-29T02:10:53.112Z,0
2016-05-29T02:11:52.976Z,0
2016-05-29T02:12:52.837Z,0
2016-05-29T02:13:53.121Z,0
2016-05-29T02:14:52.967Z,0
2016-05-29T02:15:53.142Z,0
2016-05-29T02:16:52.973Z,0
2016-05-29T02:17:53.132Z,0
2016-05-29T02:18:53.150Z,0
2016-05-29T02:19:52.981Z,0
2016-05-29T02:20:53.405Z,0
2016-05-29T02:21:53.158Z,0
2016-05-29T02:22:52.989Z,0
2016-05-29T02:23:52.991Z,0
2016-05-29T02:24:53.150Z,0
2016-05-29T02:25:53.153Z,0
2016-05-29T02:26:53.156Z,0
2016-05-29T02:27:53.158Z,0
2016-05-29T02:28:53.161Z,0
2016-05-29T02:29:53.149Z,0
2016-05-29T02:30:53.166Z,0
2016-05-29T02:31:53.169Z,0
2016-05-29T02:32:53.016Z,0
2016-05-29T02:33:53.019Z,0
2016-05-29T02:34:53.162Z,0
2016-05-29T02:35:54.337Z,0
2016-05-29T02:36:53.010Z,0
2016-05-29T02:37:53.170Z,0
2016-05-29T02:38:53.016Z,0
2016-05-29T02:39:52.862Z,0
2016-05-29T02:40:53.038Z,0
2016-05-29T02:41:53.181Z,0
2016-05-29T02:42:53.184Z,0
2016-05-29T02:43:53.045Z,0
2016-05-29T02:44:53.017Z,0
2016-05-29T02:45:53.035Z,0
2016-05-29T02:46:53.194Z,0
2016-05-29T02:47:53.057Z,0
2016-05-29T02:48:53.028Z,0
2016-05-29T02:49:53.203Z,0
2016-05-29T02:50:54.033Z,0
2016-05-29T02:51:53.207Z,0
2016-05-29T02:52:53.195Z,0
2016-05-29T02:53:53.181Z,0
2016-05-29T02:54:53.200Z,0
2016-05-29T02:55:53.202Z,0
2016-05-29T02:56:53.206Z,0
2016-05-29T02:57:53.208Z,0
2016-05-29T02:58:53.069Z,0
2016-05-29T02:59:53.214Z,4
2016-05-29T03:00:53.216Z,4
2016-05-29T03:01:53.203Z,4
2016-05-29T03:02:53.221Z,4
2016-05-29T03:03:53.255Z,0
2016-05-29T03:04:53.211Z,4
2016-05-29T03:05:53.182Z,4
2016-05-29T03:06:53.216Z,8
2016-05-29T03:07:53.063Z,4
2016-05-29T03:08:53.238Z,8
2016-05-29T03:09:53.224Z,8
2016-05-29T03:10:53.071Z,8
2016-05-29T03:11:53.074Z,12
2016-05-29T03:12:53.217Z,12
2016-05-29T03:13:53.095Z,12
2016-05-29T03:14:53.238Z,12
2016-05-29T03:15:53.241Z,12
2016-05-29T03:16:53.087Z,16
2016-05-29T03:17:53.230Z,20
2016-05-29T03:18:53.092Z,20
2016-05-29T03:19:53.236Z,24
2016-05-29T03:20:53.301Z,24
2016-05-29T03:21:53.085Z,28
2016-05-29T03:22:53.104Z,28
2016-05-29T03:23:53.091Z,32
2016-05-29T03:24:53.264Z,36
2016-05-29T03:25:53.268Z,40
2016-05-29T03:26:53.255Z,44
2016-05-29T03:27:53.102Z,48
2016-05-29T03:28:53.260Z,48
2016-05-29T03:29:53.263Z,56
2016-05-29T03:30:53.250Z,60
2016-05-29T03:31:53.268Z,68
2016-05-29T03:32:53.271Z,72
2016-05-29T03:33:53.258Z,76
2016-05-29T03:34:53.276Z,88
2016-05-29T03:35:53.310Z,92
2016-05-29T03:36:53.266Z,100
2016-05-29T03:37:53.269Z,112
2016-05-29T03:38:53.287Z,120
2016-05-29T03:39:53.274Z,132
2016-05-29T03:40:53.293Z,148
2016-05-29T03:41:53.123Z,164
2016-05-29T03:42:53.298Z,180
2016-05-29T03:43:53.129Z,196
2016-05-29T03:44:53.272Z,216
2016-05-29T03:45:53.150Z,236
2016-05-29T03:46:53.293Z,260
2016-05-29T03:47:53.280Z,276
2016-05-29T03:48:53.314Z,300
2016-05-29T03:49:53.301Z,324
2016-05-29T03:50:52.992Z,348
2016-05-29T03:51:53.134Z,368
2016-05-29T03:52:53.309Z,384
2016-05-29T03:53:53.156Z,404
2016-05-29T03:54:53.158Z,420
2016-05-29T03:55:53.302Z,428
2016-05-29T03:56:53.305Z,440
2016-05-29T03:57:53.135Z,440
2016-05-29T03:58:53.294Z,452
2016-05-29T03:59:53.312Z,456
2016-05-29T04:00:53.300Z,456
2016-05-29T04:01:53.302Z,444
2016-05-29T04:02:53.320Z,428
2016-05-29T04:03:53.324Z,408
2016-05-29T04:04:53.327Z,396
2016-05-29T04:05:53.750Z,396
2016-05-29T04:06:53.315Z,400
2016-05-29T04:07:53.319Z,408
2016-05-29T04:08:53.165Z,420
2016-05-29T04:09:53.323Z,424
2016-05-29T04:10:53.170Z,440
2016-05-29T04:11:53.313Z,452
2016-05-29T04:12:53.191Z,464
2016-05-29T04:13:53.350Z,476
2016-05-29T04:14:53.353Z,496
2016-05-29T04:15:53.356Z,528
2016-05-29T04:16:53.342Z,564
2016-05-29T04:17:53.189Z,608
2016-05-29T04:18:53.332Z,660
2016-05-29T04:19:53.195Z,724
2016-05-29T04:20:53.494Z,800
2016-05-29T04:21:53.340Z,876
2016-05-29T04:22:53.343Z,968
2016-05-29T04:23:53.345Z,1044
2016-05-29T04:24:53.348Z,1128
2016-05-29T04:25:53.350Z,1204
2016-05-29T04:26:53.370Z,1252
2016-05-29T04:27:53.200Z,1328
2016-05-29T04:28:53.200Z,1372
2016-05-29T04:29:53.361Z,1440
2016-05-29T04:30:53.364Z,1528
2016-05-29T04:31:53.367Z,1580
2016-05-29T04:32:53.354Z,1636
2016-05-29T04:33:53.373Z,1688
2016-05-29T04:34:53.375Z,1776
2016-05-29T04:35:53.410Z,1884
2016-05-29T04:36:53.378Z,2040
2016-05-29T04:37:53.365Z,2216
2016-05-29T04:38:53.367Z,2384
2016-05-29T04:39:53.371Z,2532
2016-05-29T04:40:53.216Z,2472
2016-05-29T04:41:53.391Z,2448
2016-05-29T04:42:53.081Z,2540
2016-05-29T04:43:53.225Z,2640
2016-05-29T04:44:53.384Z,2752
2016-05-29T04:45:53.370Z,2944
2016-05-29T04:46:53.390Z,2916
2016-05-29T04:47:53.235Z,2908
2016-05-29T04:48:53.395Z,2868
2016-05-29T04:49:53.241Z,2892
2016-05-29T04:50:54.090Z,2928
2016-05-29T04:51:53.403Z,2924
2016-05-29T04:52:53.405Z,2944
2016-05-29T04:53:53.408Z,3004
2016-05-29T04:54:53.254Z,3124
2016-05-29T04:55:53.414Z,3512
2016-05-29T04:56:53.416Z,3900
2016-05-29T04:57:53.419Z,4384
2016-05-29T04:58:53.406Z,5440
2016-05-29T04:59:53.424Z,5912
2016-05-29T05:00:53.411Z,6704
2016-05-29T05:01:53.430Z,6180
2016-05-29T05:02:53.417Z,5692
2016-05-29T05:03:53.419Z,4740
2016-05-29T05:04:53.438Z,6196
2016-05-29T05:05:53.440Z,8016
2016-05-29T05:06:53.427Z,7700
2016-05-29T05:07:53.430Z,5780
2016-05-29T05:08:53.432Z,6496
2016-05-29T05:09:53.436Z,6400
2016-05-29T05:10:53.126Z,6612
2016-05-29T05:11:53.441Z,10176
2016-05-29T05:12:53.443Z,8144
2016-05-29T05:13:53.446Z,7304
2016-05-29T05:14:53.465Z,7184
2016-05-29T05:15:53.451Z,6180
2016-05-29T05:16:53.455Z,6972
2016-05-29T05:17:53.457Z,6480
2016-05-29T05:18:53.460Z,6472
2016-05-29T05:19:53.462Z,6376
2016-05-29T05:20:53.573Z,6004
2016-05-29T05:21:53.312Z,5484
2016-05-29T05:22:53.314Z,4992
2016-05-29T05:23:53.317Z,4520
2016-05-29T05:24:53.303Z,4048
2016-05-29T05:25:53.479Z,3664
2016-05-29T05:26:53.481Z,3356
2016-05-29T05:27:53.483Z,3068
2016-05-29T05:28:53.503Z,2800
2016-05-29T05:29:53.177Z,2512
2016-05-29T05:30:53.492Z,2280
2016-05-29T05:31:53.494Z,2120
2016-05-29T05:32:53.528Z,2004
2016-05-29T05:33:53.188Z,1908
2016-05-29T05:34:53.346Z,1832
2016-05-29T05:35:53.896Z,1768
2016-05-29T05:36:53.352Z,1744
2016-05-29T05:37:53.355Z,1728
2016-05-29T05:38:53.529Z,1708
2016-05-29T05:39:53.516Z,1696
2016-05-29T05:40:53.550Z,1700
2016-05-29T05:41:53.521Z,1768
2016-05-29T05:42:53.540Z,1920
2016-05-29T05:43:53.401Z,2100
2016-05-29T05:44:53.388Z,2300
2016-05-29T05:45:53.407Z,2496
2016-05-29T05:46:53.551Z,2692
2016-05-29T05:47:53.553Z,2880
2016-05-29T05:48:53.556Z,3044
2016-05-29T05:49:53.543Z,3076
2016-05-29T05:50:53.998Z,2904
2016-05-29T05:51:53.565Z,2692
2016-05-29T05:52:53.567Z,2560
2016-05-29T05:53:53.569Z,2472
2016-05-29T05:54:53.416Z,2380
2016-05-29T05:55:53.575Z,2228
2016-05-29T05:56:53.577Z,1976
2016-05-29T05:57:53.595Z,1652
2016-05-29T05:58:53.567Z,1328
2016-05-29T05:59:53.586Z,1132
2016-05-29T06:00:53.431Z,1032
2016-05-29T06:01:53.591Z,996
2016-05-29T06:02:53.436Z,984
2016-05-29T06:03:53.597Z,976
2016-05-29T06:04:53.599Z,976
2016-05-29T06:05:53.508Z,980
2016-05-29T06:06:53.447Z,996
2016-05-29T06:07:53.608Z,1004
2016-05-29T06:08:53.297Z,1000
2016-05-29T06:09:53.455Z,1000
2016-05-29T06:10:53.615Z,1004
2016-05-29T06:11:53.461Z,1008
2016-05-29T06:12:53.621Z,1008
2016-05-29T06:13:53.482Z,1004
2016-05-29T06:14:53.626Z,992
2016-05-29T06:15:53.644Z,988
2016-05-29T06:16:53.631Z,980
2016-05-29T06:17:53.634Z,956
2016-05-29T06:18:53.637Z,932
2016-05-29T06:19:53.640Z,908
2016-05-29T06:20:53.501Z,892
2016-05-29T06:21:53.645Z,888
2016-05-29T06:22:53.662Z,888
2016-05-29T06:23:53.493Z,916
2016-05-29T06:24:53.668Z,972
2016-05-29T06:25:53.686Z,1064
2016-05-29T06:26:53.642Z,1200
2016-05-29T06:27:53.661Z,1376
2016-05-29T06:28:53.664Z,1568
2016-05-29T06:29:53.650Z,1748
2016-05-29T06:30:53.653Z,1912
2016-05-29T06:31:53.672Z,2068
2016-05-29T06:32:53.659Z,2200
2016-05-29T06:33:53.520Z,2312
2016-05-29T06:34:53.679Z,2416
2016-05-29T06:35:53.683Z,2520
2016-05-29T06:36:53.528Z,2636
2016-05-29T06:37:53.547Z,2740
2016-05-29T06:38:53.690Z,2840
2016-05-29T06:39:53.678Z,2920
2016-05-29T06:40:53.524Z,2912
2016-05-29T06:41:53.698Z,2792
2016-05-29T06:42:53.545Z,2600
2016-05-29T06:43:53.391Z,2388
2016-05-29T06:44:53.706Z,2188
2016-05-29T06:45:53.709Z,2048
2016-05-29T06:46:53.416Z,1944
2016-05-29T06:47:53.730Z,1872
2016-05-29T06:48:53.560Z,1812
2016-05-29T06:49:53.720Z,1784
2016-05-29T06:50:53.409Z,1828
2016-05-29T06:51:53.726Z,1968
2016-05-29T06:52:53.712Z,2168
2016-05-29T06:53:53.715Z,2352
2016-05-29T06:54:53.734Z,2496
2016-05-29T06:55:53.752Z,2628
2016-05-29T06:56:53.723Z,2724
2016-05-29T06:57:53.725Z,2776
2016-05-29T06:58:53.760Z,2896
2016-05-29T06:59:53.747Z,3144
2016-05-29T07:00:53.765Z,3504
2016-05-29T07:01:53.611Z,3884
2016-05-29T07:02:53.739Z,4248
2016-05-29T07:03:53.617Z,4536
2016-05-29T07:04:53.760Z,4692
2016-05-29T07:05:53.747Z,4728
2016-05-29T07:06:53.766Z,4720
2016-05-29T07:07:53.753Z,4756
2016-05-29T07:08:53.458Z,4904
2016-05-29T07:09:53.774Z,5160
2016-05-29T07:10:53.777Z,5452
2016-05-29T07:11:53.779Z,5352
2016-05-29T07:12:53.782Z,5068
2016-05-29T07:13:53.785Z,4684
2016-05-29T07:14:53.787Z,4148
2016-05-29T07:15:53.790Z,3828
2016-05-29T07:16:53.777Z,3652
2016-05-29T07:17:53.795Z,3532
2016-05-29T07:18:53.657Z,3464
2016-05-29T07:19:53.801Z,3460
2016-05-29T07:20:53.819Z,3516
2016-05-29T07:21:53.806Z,3656
2016-05-29T07:22:53.809Z,3860
2016-05-29T07:23:53.811Z,4120
2016-05-29T07:24:53.657Z,4356
2016-05-29T07:25:53.676Z,4556
2016-05-29T07:26:53.820Z,4720
2016-05-29T07:27:53.822Z,4852
2016-05-29T07:28:53.825Z,4956
2016-05-29T07:29:53.828Z,5120
2016-05-29T07:30:53.830Z,5392
2016-05-29T07:31:53.833Z,5720
2016-05-29T07:32:53.851Z,6064
2016-05-29T07:33:53.853Z,6344
2016-05-29T07:34:53.857Z,6376
2016-05-29T07:35:54.547Z,6564
2016-05-29T07:36:53.706Z,6524
2016-05-29T07:37:53.849Z,6588
2016-05-29T07:38:53.694Z,6784
2016-05-29T07:39:53.714Z,7064
2016-05-29T07:40:53.700Z,7616
2016-05-29T07:41:53.860Z,8088
2016-05-29T07:42:53.877Z,8356
2016-05-29T07:43:53.709Z,8584
2016-05-29T07:44:53.868Z,8648
2016-05-29T07:45:53.729Z,8744
2016-05-29T07:46:53.889Z,8736
2016-05-29T07:47:53.907Z,8532
2016-05-29T07:48:53.894Z,8412
2016-05-29T07:49:53.896Z,7980
2016-05-29T07:50:54.009Z,7788
2016-05-29T07:51:53.902Z,7656
2016-05-29T07:52:53.904Z,7440
2016-05-29T07:53:53.907Z,7364
2016-05-29T07:54:53.910Z,7376
2016-05-29T07:55:53.929Z,7404
2016-05-29T07:56:53.931Z,7584
2016-05-29T07:57:53.778Z,7624
2016-05-29T07:58:53.781Z,7812
2016-05-29T07:59:53.939Z,7832
2016-05-29T08:00:53.942Z,7748
2016-05-29T08:01:53.945Z,7588
2016-05-29T08:02:53.932Z,7544
2016-05-29T08:03:53.794Z,7476
2016-05-29T08:04:53.952Z,7404
2016-05-29T08:05:54.205Z,7376
2016-05-29T08:06:53.974Z,7572
2016-05-29T08:07:55.820Z,7844
2016-05-29T08:08:53.650Z,8492
2016-05-29T08:09:53.810Z,9272
2016-05-29T08:10:53.672Z,9460
2016-05-29T08:11:53.972Z,9052
2016-05-29T08:12:56.755Z,8756
2016-05-29T08:13:53.993Z,8536
2016-05-29T08:14:53.838Z,8336
2016-05-29T08:15:53.842Z,8188
2016-05-29T08:16:53.844Z,7976
2016-05-29T08:17:56.456Z,7948
2016-05-29T08:18:53.850Z,8232
2016-05-29T08:19:54.024Z,8544
2016-05-29T08:20:54.043Z,8540
2016-05-29T08:21:53.857Z,8924
2016-05-29T08:22:58.410Z,9380
2016-05-29T08:23:54.020Z,9280
2016-05-29T08:24:54.038Z,10576
2016-05-29T08:25:54.056Z,10864
2016-05-29T08:26:54.043Z,9284
2016-05-29T08:27:58.131Z,9096
2016-05-29T08:28:53.781Z,9592
2016-05-29T08:29:54.118Z,9620
2016-05-29T08:30:54.142Z,10560
2016-05-29T08:31:54.012Z,10676
2016-05-29T08:32:57.444Z,12592
2016-05-29T08:33:54.189Z,13808
2016-05-29T08:34:53.903Z,14972
2016-05-29T08:35:54.071Z,16036
2016-05-29T08:36:54.238Z,17856
2016-05-29T08:37:57.962Z,17240
2016-05-29T08:38:54.452Z,27232
2016-05-29T08:39:54.099Z,33344
2016-05-29T08:40:54.120Z,24064
2016-05-29T08:41:54.281Z,17556
2016-05-29T08:42:58.504Z,15068
2016-05-29T08:43:53.976Z,14636
2016-05-29T08:44:54.292Z,14064
2016-05-29T08:45:54.295Z,14040
2016-05-29T08:46:54.298Z,14124
2016-05-29T08:47:58.505Z,13928
2016-05-29T08:48:54.337Z,13476
2016-05-29T08:49:54.324Z,13040
2016-05-29T08:50:54.093Z,12748
2016-05-29T08:51:54.049Z,12096
2016-05-29T08:52:57.271Z,11776
2016-05-29T08:53:54.336Z,11616
2016-05-29T08:54:54.355Z,11348
2016-05-29T08:55:54.359Z,10996
2016-05-29T08:56:54.204Z,10804
2016-05-29T08:58:01.929Z,10036
2016-05-29T08:58:54.382Z,10340
2016-05-29T08:59:54.400Z,10528
2016-05-29T09:00:54.403Z,10648
2016-05-29T09:01:53.937Z,10432
2016-05-29T09:02:59.755Z,9696
2016-05-29T09:03:54.255Z,9144
2016-05-29T09:04:54.430Z,8560
2016-05-29T09:05:55.135Z,8172
2016-05-29T09:06:55.669Z,7904
2016-05-29T09:07:58.281Z,7692
2016-05-29T09:08:54.441Z,7572
2016-05-29T09:09:54.286Z,7480
2016-05-29T09:10:54.446Z,7408
2016-05-29T09:11:54.463Z,7336
2016-05-29T09:13:01.344Z,7248
2016-05-29T09:13:54.469Z,7168
2016-05-29T09:14:54.472Z,7072
2016-05-29T09:15:54.474Z,6984
2016-05-29T09:16:54.493Z,6872
2016-05-29T09:17:54.496Z,6760
2016-05-29T09:18:54.498Z,6628
2016-05-29T09:19:54.532Z,6460
2016-05-29T09:20:54.379Z,6276
2016-05-29T09:21:55.991Z,6092
2016-05-29T09:23:00.481Z,5928
2016-05-29T09:23:54.543Z,5800
2016-05-29T09:24:54.546Z,5660
2016-05-29T09:25:54.532Z,5524
2016-05-29T09:26:54.551Z,5384
2016-05-29T09:27:57.054Z,5240
2016-05-29T09:28:54.556Z,5104
2016-05-29T09:29:54.559Z,4976
2016-05-29T09:30:54.421Z,4860
2016-05-29T09:31:54.580Z,4756
2016-05-29T09:32:57.864Z,4672
2016-05-29T09:33:54.445Z,4600
2016-05-29T09:34:54.448Z,4528
2016-05-29T09:35:54.466Z,4448
2016-05-29T09:36:54.484Z,4348
2016-05-29T09:37:57.440Z,4220
2016-05-29T09:38:54.458Z,4084
2016-05-29T09:39:54.617Z,3944
2016-05-29T09:40:54.619Z,3816
2016-05-29T09:41:54.482Z,3716
2016-05-29T09:42:57.297Z,3636
2016-05-29T09:43:54.488Z,3588
2016-05-29T09:44:54.677Z,3548
2016-05-29T09:45:54.508Z,3512
2016-05-29T09:46:54.652Z,3496
2016-05-29T09:48:01.266Z,3512
2016-05-29T09:48:54.657Z,3564
2016-05-29T09:49:54.676Z,3660
2016-05-29T09:50:54.897Z,3784
2016-05-29T09:51:54.696Z,3916
2016-05-29T09:52:56.637Z,4036
2016-05-29T09:53:54.686Z,4132
2016-05-29T09:54:54.705Z,4216
2016-05-29T09:55:54.707Z,4292
2016-05-29T09:56:54.710Z,4372
2016-05-29T09:57:55.134Z,4452
2016-05-29T09:58:54.715Z,4528
2016-05-29T09:59:54.734Z,4572
2016-05-29T10:00:54.736Z,4580
2016-05-29T10:01:54.412Z,4556
2016-05-29T10:02:54.742Z,4520
2016-05-29T10:03:56.667Z,4492
2016-05-29T10:04:54.731Z,4496
2016-05-29T10:05:54.608Z,4528
2016-05-29T10:06:55.487Z,4564
2016-05-29T10:07:57.583Z,4596
2016-05-29T10:08:54.773Z,4616
2016-05-29T10:09:54.760Z,4640
2016-05-29T10:10:54.451Z,4684
2016-05-29T10:11:54.781Z,4764
2016-05-29T10:12:56.941Z,4876
2016-05-29T10:13:54.458Z,4988
2016-05-29T10:14:54.789Z,5092
2016-05-29T10:15:54.777Z,5152
2016-05-29T10:16:54.654Z,5164
2016-05-29T10:18:00.768Z,5156
2016-05-29T10:18:54.799Z,5136
2016-05-29T10:19:54.803Z,5124
2016-05-29T10:20:55.837Z,5152
2016-05-29T10:21:54.824Z,5208
2016-05-29T10:22:58.310Z,5252
2016-05-29T10:23:54.814Z,5252
2016-05-29T10:24:54.676Z,5220
2016-05-29T10:25:54.678Z,5180
2016-05-29T10:26:54.838Z,5160
2016-05-29T10:27:57.293Z,5164
2016-05-29T10:28:54.702Z,5172
2016-05-29T10:29:54.392Z,5184
2016-05-29T10:30:54.864Z,5176
2016-05-29T10:31:54.867Z,5144
2016-05-29T10:33:01.387Z,5064
2016-05-29T10:33:54.887Z,4976
2016-05-29T10:34:54.734Z,4888
2016-05-29T10:35:54.909Z,4848
2016-05-29T10:36:54.739Z,4860
2016-05-29T10:37:57.008Z,4924
2016-05-29T10:38:54.885Z,5000
2016-05-29T10:39:54.903Z,5084
2016-05-29T10:40:54.891Z,5180
2016-05-29T10:41:54.753Z,5272
2016-05-29T10:42:57.099Z,5344
2016-05-29T10:43:54.758Z,5380
2016-05-29T10:44:54.761Z,5360
2016-05-29T10:45:54.779Z,5296
2016-05-29T10:46:54.922Z,5220
2016-05-29T10:47:58.425Z,5172
2016-05-29T10:48:54.944Z,5152
2016-05-29T10:49:54.946Z,5164
2016-05-29T10:50:55.340Z,5184
2016-05-29T10:51:54.952Z,5180
2016-05-29T10:52:54.798Z,5148
2016-05-29T10:53:54.957Z,5108
2016-05-29T10:54:54.960Z,5032
2016-05-29T10:55:54.962Z,4932
2016-05-29T10:56:54.824Z,4824
2016-05-29T10:57:58.546Z,4716
2016-05-29T10:58:54.986Z,4668
2016-05-29T10:59:55.004Z,4620
2016-05-29T11:00:54.992Z,4548
2016-05-29T11:01:54.995Z,4332
2016-05-29T11:02:56.997Z,4008
2016-05-29T11:03:55.015Z,3784
2016-05-29T11:04:55.018Z,3616
2016-05-29T11:05:54.942Z,3532
2016-05-29T11:06:54.898Z,3520
2016-05-29T11:07:57.151Z,3332
2016-05-29T11:08:54.872Z,3144
2016-05-29T11:09:55.031Z,2984
2016-05-29T11:10:55.034Z,3012
2016-05-29T11:11:54.880Z,3160
2016-05-29T11:12:55.820Z,3356
2016-05-29T11:13:55.917Z,3576
2016-05-29T11:14:55.044Z,3712
2016-05-29T11:15:55.063Z,3620
2016-05-29T11:16:55.221Z,3432
2016-05-29T11:17:56.599Z,3456
2016-05-29T11:18:55.055Z,3512
2016-05-29T11:19:54.918Z,3692
2016-05-29T11:20:55.076Z,3984
2016-05-29T11:21:54.938Z,4292
2016-05-29T11:22:58.254Z,4656
2016-05-29T11:23:54.929Z,5024
2016-05-29T11:24:55.087Z,5264
2016-05-29T11:25:55.090Z,5208
2016-05-29T11:26:55.092Z,5052
2016-05-29T11:27:58.096Z,4888
2016-05-29T11:28:55.098Z,4728
2016-05-29T11:29:55.100Z,4596
2016-05-29T11:30:55.119Z,4624
2016-05-29T11:31:55.121Z,4712
2016-05-29T11:32:57.781Z,4956
2016-05-29T11:33:55.126Z,5276
2016-05-29T11:34:55.129Z,5692
2016-05-29T11:35:54.867Z,6204
2016-05-29T11:36:55.135Z,6772
2016-05-29T11:37:55.622Z,7304
2016-05-29T11:38:54.984Z,7692
2016-05-29T11:39:55.142Z,7836
2016-05-29T11:40:55.006Z,7992
2016-05-29T11:41:54.992Z,7968
2016-05-29T11:42:58.980Z,7580
2016-05-29T11:43:55.153Z,7028
2016-05-29T11:44:55.172Z,6040
2016-05-29T11:45:55.019Z,5392
2016-05-29T11:46:55.177Z,5500
2016-05-29T11:47:58.805Z,5900
2016-05-29T11:48:55.183Z,6168
2016-05-29T11:49:55.029Z,6480
2016-05-29T11:50:55.376Z,6504
2016-05-29T11:51:55.207Z,6560
2016-05-29T11:52:59.115Z,6884
2016-05-29T11:53:55.212Z,7252
2016-05-29T11:54:55.230Z,7592
2016-05-29T11:55:55.233Z,7464
2016-05-29T11:56:55.063Z,6812
2016-05-29T11:57:56.660Z,6400
2016-05-29T11:58:55.226Z,5900
2016-05-29T11:59:55.243Z,5500
2016-05-29T12:00:55.246Z,5140
2016-05-29T12:01:55.234Z,4804
2016-05-29T12:02:55.564Z,4444
2016-05-29T12:03:55.254Z,4132
2016-05-29T12:04:55.085Z,3900
2016-05-29T12:05:55.104Z,3780
2016-05-29T12:06:55.262Z,3764
2016-05-29T12:07:56.765Z,3836
2016-05-29T12:08:55.112Z,3940
2016-05-29T12:09:55.270Z,4024
2016-05-29T12:10:55.305Z,4116
2016-05-29T12:11:55.136Z,4208
2016-05-29T12:12:55.153Z,4284
2016-05-29T12:13:55.141Z,4260
2016-05-29T12:14:55.316Z,4056
2016-05-29T12:15:55.303Z,3820
2016-05-29T12:16:55.305Z,3616
2016-05-29T12:17:57.058Z,3460
2016-05-29T12:18:55.169Z,3364
2016-05-29T12:19:55.172Z,3264
2016-05-29T12:20:55.300Z,3260
2016-05-29T12:21:55.366Z,3316
2016-05-29T12:22:57.649Z,3236
2016-05-29T12:23:55.183Z,3180
2016-05-29T12:24:55.342Z,3156
2016-05-29T12:25:55.346Z,3096
2016-05-29T12:26:55.363Z,2996
2016-05-29T12:27:56.928Z,2856
2016-05-29T12:28:55.353Z,2756
2016-05-29T12:29:55.356Z,2596
2016-05-29T12:30:55.359Z,2404
2016-05-29T12:31:55.362Z,2172
2016-05-29T12:32:55.379Z,1916
2016-05-29T12:33:55.381Z,1684
2016-05-29T12:34:55.369Z,1480
2016-05-29T12:35:55.123Z,1324
2016-05-29T12:36:55.437Z,1232
2016-05-29T12:37:59.503Z,1168
2016-05-29T12:38:55.411Z,1136
2016-05-29T12:39:55.398Z,1128
2016-05-29T12:40:55.119Z,1128
2016-05-29T12:41:55.404Z,1128
2016-05-29T12:42:56.312Z,1120
2016-05-29T12:43:55.408Z,1096
2016-05-29T12:44:55.411Z,1048
2016-05-29T12:45:55.430Z,1000
2016-05-29T12:46:55.417Z,888
2016-05-29T12:47:58.388Z,800
2016-05-29T12:48:55.266Z,776
2016-05-29T12:49:55.285Z,780
2016-05-29T12:50:55.178Z,820
2016-05-29T12:51:55.493Z,848
2016-05-29T12:52:58.824Z,840
2016-05-29T12:53:55.310Z,788
2016-05-29T12:54:55.299Z,616
2016-05-29T12:55:55.301Z,620
2016-05-29T12:56:55.460Z,608
2016-05-29T12:58:00.712Z,536
2016-05-29T12:58:55.480Z,536
2016-05-29T12:59:55.312Z,532
2016-05-29T13:00:55.471Z,432
2016-05-29T13:01:55.473Z,260
2016-05-29T13:02:57.990Z,236
2016-05-29T13:03:55.197Z,272
2016-05-29T13:04:55.356Z,304
2016-05-29T13:05:55.687Z,340
2016-05-29T13:06:55.331Z,404
2016-05-29T13:07:58.192Z,496
2016-05-29T13:08:55.507Z,576
2016-05-29T13:09:55.495Z,648
2016-05-29T13:10:55.512Z,700
2016-05-29T13:11:55.515Z,756
2016-05-29T13:12:55.377Z,820
2016-05-29T13:13:55.521Z,896
2016-05-29T13:14:55.523Z,992
2016-05-29T13:15:55.370Z,1080
2016-05-29T13:16:55.544Z,1156
2016-05-29T13:17:58.094Z,1248
2016-05-29T13:18:55.534Z,1356
2016-05-29T13:19:55.536Z,1476
2016-05-29T13:20:56.586Z,1564
2016-05-29T13:21:56.011Z,1620
2016-05-29T13:22:57.842Z,1616
2016-05-29T13:23:55.563Z,1588
2016-05-29T13:24:55.582Z,1572
2016-05-29T13:25:55.616Z,1612
2016-05-29T13:26:55.555Z,1708
2016-05-29T13:27:56.371Z,1852
2016-05-29T13:28:55.561Z,2064
2016-05-29T13:29:55.579Z,2292
2016-05-29T13:30:55.582Z,2492
2016-05-29T13:31:55.429Z,2704
2016-05-29T13:32:58.182Z,2780
2016-05-29T13:33:55.574Z,2820
2016-05-29T13:34:55.437Z,2764
2016-05-29T13:35:55.565Z,2776
2016-05-29T13:36:55.754Z,2720
2016-05-29T13:37:55.648Z,2704
2016-05-29T13:38:55.603Z,2728
2016-05-29T13:39:55.451Z,2776
2016-05-29T13:40:55.468Z,2972
2016-05-29T13:41:55.628Z,3308